createdAt,value
2022-08-28T00:00:59.843Z,99.90
2022-08-28T00:03:28.217Z,99.90
2022-08-28T00:05:57.355Z,99.90
2022-08-28T00:08:24.487Z,99.90
2022-08-28T00:10:51.858Z,99.90
2022-08-28T00:13:21.349Z,99.90
2022-08-28T00:15:51.253Z,99.90
2022-08-28T00:18:18.633Z,99.90
2022-08-28T00:20:47.681Z,99.90
2022-08-28T00:23:15.068Z,99.90
2022-08-28T00:25:42.213Z,99.90
2022-08-28T00:28:23.486Z,99.90
2022-08-28T00:30:52.680Z,99.90
2022-08-28T00:33:22.366Z,99.90
2022-08-28T00:35:51.647Z,99.90
2022-08-28T00:38:20.168Z,99.90
2022-08-28T00:40:49.277Z,99.90
2022-08-28T00:43:31.697Z,99.90
2022-08-28T00:45:59.034Z,99.90
2022-08-28T00:48:25.951Z,99.90
2022-08-28T00:51:13.064Z,99.90
2022-08-28T00:53:40.167Z,99.90
2022-08-28T00:56:13.091Z,99.90
2022-08-28T00:58:43.281Z,99.90
2022-08-28T01:01:11.145Z,99.90
2022-08-28T01:03:38.115Z,99.90
2022-08-28T01:06:07.451Z,99.90
2022-08-28T01:08:35.202Z,99.90
2022-08-28T01:11:04.499Z,99.90
2022-08-28T01:13:32.543Z,99.90
2022-08-28T01:15:59.973Z,99.90
2022-08-28T01:18:27.939Z,99.90
2022-08-28T01:21:01.701Z,99.90
2022-08-28T01:23:41.682Z,99.90
2022-08-28T01:26:11.631Z,99.90
2022-08-28T01:28:39.037Z,99.90
2022-08-28T01:31:09.021Z,99.90
2022-08-28T01:33:36.087Z,99.90
2022-08-28T01:36:08.157Z,99.90
2022-08-28T01:38:35.070Z,99.90
2022-08-28T01:41:03.419Z,99.90
2022-08-28T01:43:31.456Z,99.90
2022-08-28T01:46:04.559Z,99.90
2022-08-28T01:48:35.797Z,99.90
2022-08-28T01:51:03.538Z,99.90
2022-08-28T01:53:33.190Z,99.90
2022-08-28T01:56:44.371Z,99.90
2022-08-28T01:59:14.319Z,99.90
2022-08-28T02:01:43.105Z,99.90
2022-08-28T02:04:10.391Z,99.90
2022-08-28T02:06:38.075Z,99.90
2022-08-28T02:09:05.772Z,99.90
2022-08-28T02:11:33.055Z,99.90
2022-08-28T02:14:01.899Z,99.90
2022-08-28T02:16:30.214Z,99.90
2022-08-28T02:18:57.213Z,99.90
2022-08-28T02:21:25.206Z,99.90
2022-08-28T02:23:52.965Z,99.90
2022-08-28T02:26:20.884Z,99.90
2022-08-28T02:28:48.468Z,99.90
2022-08-28T02:31:15.645Z,99.90
2022-08-28T02:33:44.788Z,99.90
2022-08-28T02:36:14.078Z,99.90
2022-08-28T02:38:41.136Z,99.90
2022-08-28T02:41:08.946Z,99.90
2022-08-28T02:43:35.976Z,99.90
2022-08-28T02:46:04.692Z,99.90
2022-08-28T02:48:33.654Z,99.90
2022-08-28T02:51:05.173Z,99.90
2022-08-28T02:53:32.283Z,99.90
2022-08-28T02:56:02.971Z,99.90
2022-08-28T02:58:32.255Z,99.90
2022-08-28T03:01:00.440Z,99.90
2022-08-28T03:03:27.908Z,99.90
2022-08-28T03:05:55.664Z,99.90
2022-08-28T03:08:27.182Z,99.90
2022-08-28T03:10:54.569Z,99.90
2022-08-28T03:13:23.074Z,99.90
2022-08-28T03:15:55.708Z,99.90
2022-08-28T03:18:24.404Z,99.90
2022-08-28T03:20:52.792Z,99.90
2022-08-28T03:23:29.135Z,99.90
2022-08-28T03:25:59.898Z,99.90
2022-08-28T03:28:29.196Z,99.90
2022-08-28T03:30:57.777Z,99.90
2022-08-28T03:33:26.795Z,99.90
2022-08-28T03:35:55.071Z,99.90
2022-08-28T03:38:22.566Z,99.90
2022-08-28T03:40:53.433Z,99.90
2022-08-28T03:43:24.980Z,99.90
2022-08-28T03:45:54.234Z,99.90
2022-08-28T03:48:21.365Z,99.90
2022-08-28T03:50:49.047Z,99.90
2022-08-28T03:53:16.035Z,99.90
2022-08-28T03:55:43.244Z,99.90
2022-08-28T03:58:10.213Z,99.90
2022-08-28T04:00:47.404Z,99.90
2022-08-28T04:03:14.966Z,99.90
2022-08-28T04:05:42.646Z,99.90
2022-08-28T04:08:12.638Z,99.90
2022-08-28T04:10:39.637Z,99.90
2022-08-28T04:13:06.521Z,99.90
2022-08-28T04:15:33.556Z,99.90
2022-08-28T04:18:01.892Z,99.90
2022-08-28T04:20:29.078Z,99.90
2022-08-28T04:22:56.103Z,99.90
2022-08-28T04:25:23.689Z,99.90
2022-08-28T04:27:51.857Z,99.90
2022-08-28T04:30:18.932Z,99.90
2022-08-28T04:32:45.889Z,99.90
2022-08-28T04:35:16.538Z,99.90
2022-08-28T04:37:46.233Z,99.90
2022-08-28T04:40:15.816Z,99.90
2022-08-28T04:42:44.938Z,99.90
2022-08-28T04:45:11.987Z,99.90
2022-08-28T04:47:39.277Z,99.90
2022-08-28T04:50:07.866Z,99.90
2022-08-28T04:52:36.477Z,99.90
2022-08-28T04:55:04.461Z,99.90
2022-08-28T04:57:36.131Z,99.90
2022-08-28T05:00:05.013Z,99.90
2022-08-28T05:02:32.097Z,99.90
2022-08-28T05:04:59.164Z,99.90
2022-08-28T05:07:26.154Z,99.90
2022-08-28T05:09:54.729Z,99.90
2022-08-28T05:12:22.139Z,99.90
2022-08-28T05:14:49.461Z,99.90
2022-08-28T05:17:16.408Z,99.90
2022-08-28T05:19:43.794Z,99.90
2022-08-28T05:22:10.846Z,99.90
2022-08-28T05:24:38.140Z,99.90
2022-08-28T05:27:06.944Z,99.90
2022-08-28T05:29:33.956Z,99.90
2022-08-28T05:32:01.609Z,99.90
2022-08-28T05:34:28.651Z,99.90
2022-08-28T05:36:55.883Z,99.90
2022-08-28T05:39:22.896Z,99.90
2022-08-28T05:41:50.074Z,99.90
2022-08-28T05:44:19.639Z,99.90
2022-08-28T05:46:48.213Z,99.90
2022-08-28T05:49:15.999Z,99.90
2022-08-28T05:51:43.351Z,99.90
2022-08-28T05:54:10.715Z,99.90
2022-08-28T05:56:40.454Z,99.90
2022-08-28T05:59:08.665Z,99.90
2022-08-28T06:01:39.756Z,99.90
2022-08-28T06:04:08.911Z,99.90
2022-08-28T06:06:38.315Z,99.90
2022-08-28T06:09:08.480Z,99.90
2022-08-28T06:11:37.085Z,99.90
2022-08-28T06:14:09.735Z,99.90
2022-08-28T06:16:39.591Z,99.90
2022-08-28T06:19:09.196Z,99.90
2022-08-28T06:21:37.010Z,99.90
2022-08-28T06:24:04.626Z,99.90
2022-08-28T06:26:31.587Z,99.90
2022-08-28T06:29:01.351Z,99.90
2022-08-28T06:31:32.999Z,99.90
2022-08-28T06:34:01.918Z,99.90
2022-08-28T06:36:32.281Z,99.90
2022-08-28T06:39:00.478Z,99.90
2022-08-28T06:41:28.817Z,99.90
2022-08-28T06:43:57.263Z,99.90
2022-08-28T06:46:25.208Z,99.90
2022-08-28T06:48:52.828Z,99.90
2022-08-28T06:51:23.105Z,99.90
2022-08-28T06:53:52.031Z,99.90
2022-08-28T06:56:25.984Z,99.90
2022-08-28T06:58:54.543Z,99.90
2022-08-28T07:01:24.420Z,99.90
2022-08-28T07:03:53.235Z,99.90
2022-08-28T07:06:22.748Z,99.90
2022-08-28T07:08:50.889Z,99.90
2022-08-28T07:11:21.990Z,99.90
2022-08-28T07:13:54.171Z,99.90
2022-08-28T07:16:24.898Z,99.90
2022-08-28T07:18:52.246Z,99.90
2022-08-28T07:21:20.788Z,99.90
2022-08-28T07:23:48.442Z,99.90
2022-08-28T07:26:17.318Z,99.90
2022-08-28T07:28:45.454Z,99.90
2022-08-28T07:31:16.067Z,99.90
2022-08-28T07:33:43.839Z,99.90
2022-08-28T07:36:15.841Z,99.90
2022-08-28T07:38:59.692Z,99.90
2022-08-28T07:41:29.321Z,99.90
2022-08-28T07:44:15.146Z,99.90
2022-08-28T07:46:42.217Z,99.90
2022-08-28T07:49:10.001Z,99.90
2022-08-28T07:51:37.441Z,99.90
2022-08-28T07:54:05.816Z,99.90
2022-08-28T07:56:33.080Z,99.90
2022-08-28T07:59:01.237Z,99.90
2022-08-28T08:01:30.778Z,99.90
2022-08-28T08:04:01.213Z,99.90
2022-08-28T08:06:33.915Z,99.90
2022-08-28T08:09:01.874Z,99.90
2022-08-28T08:11:32.645Z,99.90
2022-08-28T08:14:04.719Z,99.90
2022-08-28T08:16:34.621Z,99.90
2022-08-28T08:19:01.891Z,99.90
2022-08-28T08:21:30.462Z,99.90
2022-08-28T08:23:58.197Z,99.90
2022-08-28T08:26:28.175Z,99.90
2022-08-28T08:28:56.990Z,99.90
2022-08-28T08:31:26.741Z,99.90
2022-08-28T08:33:56.727Z,99.90
2022-08-28T08:36:27.735Z,99.90
2022-08-28T08:39:00.012Z,99.90
2022-08-28T08:41:32.193Z,99.90
2022-08-28T08:44:06.652Z,99.90
2022-08-28T08:46:37.590Z,99.90
2022-08-28T08:49:13.594Z,99.90
2022-08-28T08:51:43.688Z,99.90
2022-08-28T08:54:13.467Z,99.90
2022-08-28T08:56:43.141Z,99.90
2022-08-28T08:59:16.311Z,99.90
2022-08-28T09:01:50.794Z,99.90
2022-08-28T09:04:35.103Z,99.90
2022-08-28T09:07:07.957Z,99.90
2022-08-28T09:09:37.385Z,99.90
2022-08-28T09:12:08.175Z,99.90
2022-08-28T09:14:49.277Z,99.90
2022-08-28T09:17:19.343Z,99.90
2022-08-28T09:19:46.269Z,99.90
2022-08-28T09:22:13.417Z,99.90
2022-08-28T09:24:42.093Z,99.90
2022-08-28T09:27:23.070Z,99.90
2022-08-28T09:29:57.199Z,99.90
2022-08-28T09:32:26.890Z,99.90
2022-08-28T09:35:03.819Z,99.90
2022-08-28T09:37:34.132Z,99.90
2022-08-28T09:40:23.094Z,99.90
2022-08-28T09:43:18.600Z,99.90
2022-08-28T09:45:52.598Z,99.90
2022-08-28T09:48:21.850Z,99.90
2022-08-28T09:50:58.968Z,99.90
2022-08-28T09:53:28.425Z,99.90
2022-08-28T09:56:07.592Z,99.90
2022-08-28T09:58:38.840Z,99.90
2022-08-28T10:01:20.011Z,99.90
2022-08-28T10:03:53.294Z,99.90
2022-08-28T10:06:26.667Z,99.90
2022-08-28T10:09:04.053Z,99.90
2022-08-28T10:11:44.294Z,99.90
2022-08-28T10:14:35.263Z,99.90
2022-08-28T10:17:14.382Z,99.90
2022-08-28T10:19:47.264Z,99.90
2022-08-28T10:22:28.845Z,99.60
2022-08-28T10:25:05.567Z,98.70
2022-08-28T10:27:48.412Z,98.80
2022-08-28T10:30:17.564Z,98.10
2022-08-28T10:33:25.612Z,97.30
2022-08-28T10:35:58.563Z,97.30
2022-08-28T10:38:37.308Z,97.20
2022-08-28T10:41:09.058Z,97.50
2022-08-28T10:43:43.172Z,98.20
2022-08-28T10:46:13.588Z,98.90
2022-08-28T10:48:46.445Z,99.30
2022-08-28T10:51:19.025Z,99.90
2022-08-28T10:54:06.308Z,99.90
2022-08-28T10:56:38.976Z,99.90
2022-08-28T10:59:06.408Z,99.90
2022-08-28T11:01:35.768Z,99.90
2022-08-28T11:04:07.995Z,99.90
2022-08-28T11:06:39.275Z,99.90
2022-08-28T11:09:25.189Z,99.90
2022-08-28T11:12:01.067Z,99.90
2022-08-28T11:14:36.431Z,99.90
2022-08-28T11:17:39.471Z,99.90
2022-08-28T11:20:15.863Z,99.90
2022-08-28T11:22:46.903Z,99.90
2022-08-28T11:25:18.450Z,99.90
2022-08-28T11:28:18.678Z,99.90
2022-08-28T11:30:47.347Z,99.90
2022-08-28T11:33:38.393Z,99.80
2022-08-28T11:36:10.378Z,98.60
2022-08-28T11:39:00.848Z,97.20
2022-08-28T11:41:30.045Z,95.50
2022-08-28T11:44:38.204Z,94.70
2022-08-28T11:47:38.476Z,94.40
2022-08-28T11:50:14.687Z,93.80
2022-08-28T11:53:01.853Z,92.80
2022-08-28T11:55:44.987Z,92.10
2022-08-28T11:58:21.250Z,92.00
2022-08-28T12:00:53.385Z,91.60
2022-08-28T12:03:29.012Z,91.00
2022-08-28T12:05:58.533Z,89.90
2022-08-28T12:09:08.565Z,89.50
2022-08-28T12:12:01.640Z,89.70
2022-08-28T12:15:04.333Z,90.00
2022-08-28T12:17:52.468Z,90.20
2022-08-28T12:20:33.141Z,90.30
2022-08-28T12:23:03.079Z,89.30
2022-08-28T12:25:35.749Z,89.60
2022-08-28T12:28:19.619Z,89.70
2022-08-28T12:30:56.565Z,88.50
2022-08-28T12:33:31.924Z,87.80
2022-08-28T12:36:02.128Z,85.90
2022-08-28T12:38:31.039Z,86.60
2022-08-28T12:40:58.221Z,86.60
2022-08-28T12:43:34.549Z,85.70
2022-08-28T12:46:04.204Z,87.50
2022-08-28T12:48:33.388Z,86.30
2022-08-28T12:51:04.498Z,85.80
2022-08-28T12:53:40.129Z,85.90
2022-08-28T12:56:09.362Z,85.20
2022-08-28T12:58:39.708Z,86.50
2022-08-28T13:01:10.232Z,86.50
2022-08-28T13:03:45.948Z,86.20
2022-08-28T13:06:13.356Z,85.60
2022-08-28T13:08:40.745Z,85.50
2022-08-28T13:11:08.057Z,83.70
2022-08-28T13:13:40.172Z,83.70
2022-08-28T13:16:09.051Z,82.70
2022-08-28T13:18:52.653Z,82.80
2022-08-28T13:21:34.482Z,83.30
2022-08-28T13:24:37.155Z,83.00
2022-08-28T13:27:07.743Z,81.60
2022-08-28T13:29:37.083Z,81.20
2022-08-28T13:32:06.711Z,79.90
2022-08-28T13:34:36.330Z,80.70
2022-08-28T13:37:08.816Z,78.70
2022-08-28T13:39:47.193Z,78.90
2022-08-28T13:42:16.894Z,79.70
2022-08-28T13:44:48.752Z,79.60
2022-08-28T13:47:16.741Z,79.30
2022-08-28T13:49:43.955Z,80.00
2022-08-28T13:52:11.271Z,79.80
2022-08-28T13:54:39.170Z,80.80
2022-08-28T13:57:10.966Z,80.50
2022-08-28T13:59:37.970Z,79.80
2022-08-28T14:02:29.652Z,80.10
2022-08-28T14:04:56.695Z,79.20
2022-08-28T14:07:23.712Z,78.90
2022-08-28T14:09:55.508Z,77.90
2022-08-28T14:12:31.468Z,77.90
2022-08-28T14:15:01.611Z,78.50
2022-08-28T14:17:29.905Z,78.70
2022-08-28T14:19:57.461Z,78.20
2022-08-28T14:22:24.410Z,78.20
2022-08-28T14:24:51.355Z,78.10
2022-08-28T14:27:18.418Z,77.90
2022-08-28T14:29:45.309Z,77.30
2022-08-28T14:32:12.277Z,77.70
2022-08-28T14:34:41.266Z,78.60
2022-08-28T14:37:08.325Z,78.70
2022-08-28T14:39:35.784Z,79.10
2022-08-28T14:42:06.424Z,79.60
2022-08-28T14:44:40.552Z,80.40
2022-08-28T14:47:07.459Z,79.70
2022-08-28T14:49:34.405Z,80.00
2022-08-28T14:52:02.985Z,78.60
2022-08-28T14:54:29.904Z,78.30
2022-08-28T14:56:56.881Z,79.20
2022-08-28T14:59:26.412Z,79.80
2022-08-28T15:01:55.242Z,79.40
2022-08-28T15:04:24.087Z,79.60
2022-08-28T15:06:55.376Z,78.50
2022-08-28T15:09:23.939Z,78.50
2022-08-28T15:11:50.912Z,78.20
2022-08-28T15:14:18.296Z,78.10
2022-08-28T15:16:46.980Z,78.80
2022-08-28T15:19:17.737Z,79.90
2022-08-28T15:21:47.246Z,80.10
2022-08-28T15:24:16.848Z,79.60
2022-08-28T15:26:45.267Z,79.80
2022-08-28T15:29:12.497Z,79.90
2022-08-28T15:31:42.408Z,79.40
2022-08-28T15:34:13.490Z,79.00
2022-08-28T15:36:41.664Z,79.40
2022-08-28T15:39:28.427Z,79.40
2022-08-28T15:41:57.127Z,79.40
2022-08-28T15:44:24.377Z,80.10
2022-08-28T15:46:53.647Z,80.80
2022-08-28T15:49:23.717Z,81.70
2022-08-28T15:51:51.231Z,82.40
2022-08-28T15:54:19.075Z,82.70
2022-08-28T15:56:46.449Z,83.10
2022-08-28T15:59:17.842Z,84.00
2022-08-28T16:01:45.759Z,83.60
2022-08-28T16:04:13.657Z,83.80
2022-08-28T16:06:41.823Z,83.50
2022-08-28T16:09:10.165Z,83.40
2022-08-28T16:11:38.734Z,83.20
2022-08-28T16:14:07.439Z,83.50
2022-08-28T16:16:35.887Z,84.00
2022-08-28T16:19:03.981Z,84.20
2022-08-28T16:21:31.756Z,83.40
2022-08-28T16:23:58.735Z,83.90
2022-08-28T16:26:25.670Z,83.80
2022-08-28T16:28:52.761Z,83.70
2022-08-28T16:31:19.686Z,84.20
2022-08-28T16:33:48.863Z,84.80
2022-08-28T16:36:16.767Z,84.60
2022-08-28T16:38:46.079Z,84.90
2022-08-28T16:41:14.246Z,85.10
2022-08-28T16:43:41.187Z,85.10
2022-08-28T16:46:12.716Z,85.20
2022-08-28T16:48:40.456Z,85.10
2022-08-28T16:51:11.124Z,85.30
2022-08-28T16:53:40.613Z,85.00
2022-08-28T16:56:08.958Z,85.30
2022-08-28T16:58:36.519Z,84.60
2022-08-28T17:01:04.717Z,84.90
2022-08-28T17:03:32.781Z,84.80
2022-08-28T17:06:08.598Z,84.10
2022-08-28T17:08:36.884Z,84.60
2022-08-28T17:11:04.147Z,84.40
2022-08-28T17:13:31.005Z,84.90
2022-08-28T17:15:57.945Z,84.90
2022-08-28T17:18:24.850Z,84.80
2022-08-28T17:21:10.528Z,85.20
2022-08-28T17:23:38.772Z,85.50
2022-08-28T17:26:05.941Z,86.00
2022-08-28T17:28:33.223Z,86.30
2022-08-28T17:31:00.406Z,86.60
2022-08-28T17:33:27.643Z,87.00
2022-08-28T17:35:55.652Z,86.90
2022-08-28T17:38:23.241Z,87.40
2022-08-28T17:40:52.931Z,88.20
2022-08-28T17:43:20.059Z,88.20
2022-08-28T17:45:47.421Z,88.60
2022-08-28T17:48:16.928Z,88.70
2022-08-28T17:50:46.111Z,89.60
2022-08-28T17:53:13.381Z,89.40
2022-08-28T17:55:40.316Z,89.80
2022-08-28T17:58:08.592Z,90.40
2022-08-28T18:00:35.754Z,90.30
2022-08-28T18:03:02.901Z,90.50
2022-08-28T18:05:29.913Z,90.60
2022-08-28T18:07:56.932Z,90.80
2022-08-28T18:10:23.858Z,91.00
2022-08-28T18:12:50.861Z,91.00
2022-08-28T18:15:19.225Z,91.20
2022-08-28T18:17:50.292Z,91.30
2022-08-28T18:20:18.102Z,91.40
2022-08-28T18:22:45.535Z,91.50
2022-08-28T18:25:32.438Z,91.60
2022-08-28T18:27:59.418Z,91.70
2022-08-28T18:30:28.132Z,91.90
2022-08-28T18:32:58.310Z,92.10
2022-08-28T18:35:31.629Z,92.20
2022-08-28T18:37:59.935Z,92.40
2022-08-28T18:40:27.252Z,92.60
2022-08-28T18:42:54.748Z,92.80
2022-08-28T18:45:22.059Z,93.10
2022-08-28T18:47:50.307Z,93.30
2022-08-28T18:50:17.389Z,93.30
2022-08-28T18:52:44.488Z,93.40
2022-08-28T18:55:11.363Z,93.40
2022-08-28T18:57:38.532Z,93.50
2022-08-28T19:00:06.563Z,93.60
2022-08-28T19:02:36.131Z,93.80
2022-08-28T19:05:08.091Z,93.90
2022-08-28T19:07:35.021Z,94.00
2022-08-28T19:10:02.066Z,94.20
2022-08-28T19:12:29.247Z,94.40
2022-08-28T19:14:57.584Z,94.50
2022-08-28T19:17:25.441Z,94.60
2022-08-28T19:19:54.311Z,94.80
2022-08-28T19:22:23.231Z,94.90
2022-08-28T19:24:50.479Z,94.90
2022-08-28T19:27:17.510Z,94.80
2022-08-28T19:29:44.412Z,94.80
2022-08-28T19:32:11.363Z,94.70
2022-08-28T19:34:38.259Z,94.60
2022-08-28T19:37:06.319Z,94.70
2022-08-28T19:39:34.590Z,94.60
2022-08-28T19:42:01.553Z,95.00
2022-08-28T19:44:28.468Z,94.60
2022-08-28T19:46:55.368Z,95.00
2022-08-28T19:49:22.395Z,95.00
2022-08-28T19:51:49.236Z,95.10
2022-08-28T19:54:16.181Z,95.20
2022-08-28T19:56:44.394Z,95.40
2022-08-28T19:59:11.389Z,95.50
2022-08-28T20:01:40.575Z,95.60
2022-08-28T20:04:08.762Z,95.70
2022-08-28T20:06:36.562Z,95.90
2022-08-28T20:09:04.326Z,95.90
2022-08-28T20:11:31.314Z,96.00
2022-08-28T20:14:04.595Z,96.20
2022-08-28T20:16:34.062Z,96.30
2022-08-28T20:19:01.491Z,96.50
2022-08-28T20:21:36.751Z,96.80
2022-08-28T20:24:06.353Z,96.90
2022-08-28T20:26:33.295Z,96.90
2022-08-28T20:29:01.489Z,97.00
2022-08-28T20:31:28.440Z,97.10
2022-08-28T20:33:55.438Z,97.50
2022-08-28T20:36:23.081Z,97.70
2022-08-28T20:38:50.166Z,98.00
2022-08-28T20:41:19.446Z,98.00
2022-08-28T20:43:47.108Z,98.20
2022-08-28T20:46:17.025Z,98.50
2022-08-28T20:48:44.619Z,98.70
2022-08-28T20:51:11.873Z,98.80
2022-08-28T20:53:39.648Z,98.90
2022-08-28T20:56:08.631Z,98.90
2022-08-28T20:58:35.932Z,99.10
2022-08-28T21:01:02.959Z,99.30
2022-08-28T21:03:31.328Z,99.40
2022-08-28T21:05:58.233Z,99.40
2022-08-28T21:08:25.821Z,99.70
2022-08-28T21:10:52.810Z,99.90
2022-08-28T21:13:19.790Z,99.90
2022-08-28T21:15:47.116Z,99.90
2022-08-28T21:18:14.201Z,99.90
2022-08-28T21:20:42.611Z,99.90
2022-08-28T21:23:10.494Z,99.90
2022-08-28T21:25:39.734Z,99.90
2022-08-28T21:28:07.000Z,99.90
2022-08-28T21:30:34.318Z,99.90
2022-08-28T21:33:01.340Z,99.90
2022-08-28T21:35:29.021Z,99.90
2022-08-28T21:37:57.256Z,99.90
2022-08-28T21:40:24.441Z,99.90
2022-08-28T21:42:51.342Z,99.90
2022-08-28T21:45:18.407Z,99.90
2022-08-28T21:47:45.323Z,99.90
2022-08-28T21:50:12.999Z,99.90
2022-08-28T21:52:40.400Z,99.90
2022-08-28T21:55:11.979Z,99.90
2022-08-28T21:57:39.143Z,99.90
2022-08-28T22:00:09.674Z,99.90
2022-08-28T22:02:36.639Z,99.90
2022-08-28T22:05:04.241Z,99.90
2022-08-28T22:07:31.167Z,99.90
2022-08-28T22:09:58.130Z,99.90
2022-08-28T22:12:26.422Z,99.90
2022-08-28T22:14:54.184Z,99.90
2022-08-28T22:17:21.092Z,99.90
2022-08-28T22:19:47.963Z,99.90
2022-08-28T22:22:34.452Z,99.90
2022-08-28T22:25:01.503Z,99.90
2022-08-28T22:27:31.820Z,99.90
2022-08-28T22:29:58.919Z,99.90
2022-08-28T22:32:26.865Z,99.90
2022-08-28T22:34:55.176Z,99.90
2022-08-28T22:37:23.255Z,99.90
2022-08-28T22:39:51.405Z,99.90
2022-08-28T22:42:18.364Z,99.90
2022-08-28T22:44:47.872Z,99.90
2022-08-28T22:47:14.808Z,99.90
2022-08-28T22:49:41.729Z,99.90
2022-08-28T22:52:09.845Z,99.90
2022-08-28T22:54:37.501Z,99.90
2022-08-28T22:57:05.773Z,99.90
2022-08-28T22:59:32.858Z,99.90
2022-08-28T23:02:03.248Z,99.90
2022-08-28T23:04:31.063Z,99.90
2022-08-28T23:06:58.111Z,99.90
2022-08-28T23:09:25.076Z,99.90
2022-08-28T23:11:51.960Z,99.90
2022-08-28T23:14:19.270Z,99.90
2022-08-28T23:16:46.387Z,99.90
2022-08-28T23:19:14.796Z,99.90
2022-08-28T23:21:44.249Z,99.90
2022-08-28T23:24:11.946Z,99.90
2022-08-28T23:26:39.233Z,99.90
2022-08-28T23:29:06.160Z,99.90
2022-08-28T23:32:35.777Z,99.90
2022-08-28T23:35:07.338Z,99.90
2022-08-28T23:37:35.574Z,99.90
2022-08-28T23:40:03.203Z,99.90
2022-08-28T23:42:30.281Z,99.90
2022-08-28T23:44:57.773Z,99.90
2022-08-28T23:47:25.877Z,99.90
2022-08-28T23:49:53.754Z,99.90
2022-08-28T23:52:21.980Z,99.90
2022-08-28T23:54:49.184Z,99.90
2022-08-28T23:57:16.920Z,99.90
2022-08-28T23:59:44.281Z,99.90
